CheckWX is a tool to help pilots better visualize weather data.  It is not intended as a substitute for an official pre-flight weather briefing.

12:44:47 UTC

KOGB TAF
Orangeburg Municipal Airport
Orangeburg, South Carolina, USA
KOGB 201125Z 2012/2112 VRB03KT 4SM BR HZ SCT005 BKN012 TEMPO 2012/2013 BKN005 FM201400 23008G14KT P6SM SCT035 FM210100 23003KT P6SM SCT050

May-20@
12:00 UTC

May-20 @ 12:00 UTC

May-20@
14:00 UTC

May-20 @ 14:00 UTC

KOGB 201125Z 2012/2112 VRB03KT 4SM BR HZ SCT005 BKN012
Wind
  • Variable at 3 KTS
Conditions
Mist, Haze
Cloud Levels
  • Scattered at 500' AGL
  • Broken at 1,200' AGL

May-20@
12:00 UTC

May-20 @ 12:00 UTC

May-20@
13:00 UTC

May-20 @ 13:00 UTC

TEMPO 2012/2013 BKN005

Temporary

Temporary Changes expected for less than half the time period

Cloud Levels
  • Broken at 500' AGL

May-20@
14:00 UTC

May-20 @ 14:00 UTC

May-21@
01:00 UTC

May-21 @ 01:00 UTC

FM201400 23008G14KT P6SM SCT035

From

From Standard forecast or significant change

Wind
  • 230° at 8 KTS
  • {Gusting to 14 KTS
Cloud Levels
  • Scattered at 3,500' AGL

May-21@
01:00 UTC

May-21 @ 01:00 UTC

May-21@
12:00 UTC

May-21 @ 12:00 UTC

FM210100 23003KT P6SM SCT050

From

From Standard forecast or significant change

Wind
  • 230° at 3 KTS
Cloud Levels
  • Scattered at 5,000' AGL